sensor_id;sensor_type;location;lat;lon;timestamp;pressure;altitude;pressure_sealevel;temperature;humidity
21109;BME280;10712;52.944;9.098;2024-01-25T00:01:47;102078.56;;;15.67;65.40
21109;BME280;10712;52.944;9.098;2024-01-25T00:04:13;102075.31;;;15.76;65.25
21109;BME280;10712;52.944;9.098;2024-01-25T00:06:39;102079.16;;;15.72;65.25
21109;BME280;10712;52.944;9.098;2024-01-25T00:09:05;102069.94;;;15.76;65.17
21109;BME280;10712;52.944;9.098;2024-01-25T00:11:30;102066.88;;;15.68;65.34
21109;BME280;10712;52.944;9.098;2024-01-25T00:13:58;102076.38;;;15.74;65.35
21109;BME280;10712;52.944;9.098;2024-01-25T00:16:24;102072.69;;;15.61;65.52
21109;BME280;10712;52.944;9.098;2024-01-25T00:18:49;102077.78;;;15.65;65.47
21109;BME280;10712;52.944;9.098;2024-01-25T00:21:16;102086.56;;;15.53;65.81
21109;BME280;10712;52.944;9.098;2024-01-25T00:23:42;102092.84;;;15.52;65.93
21109;BME280;10712;52.944;9.098;2024-01-25T00:26:08;102091.84;;;15.55;65.75
21109;BME280;10712;52.944;9.098;2024-01-25T00:28:34;102099.53;;;15.61;65.79
21109;BME280;10712;52.944;9.098;2024-01-25T00:31:00;102094.84;;;15.64;65.71
21109;BME280;10712;52.944;9.098;2024-01-25T00:33:25;102090.19;;;15.68;65.65
21109;BME280;10712;52.944;9.098;2024-01-25T00:35:52;102086.19;;;15.59;66.01
21109;BME280;10712;52.944;9.098;2024-01-25T00:38:18;102087.34;;;15.55;66.11
21109;BME280;10712;52.944;9.098;2024-01-25T00:40:45;102090.25;;;15.66;65.94
21109;BME280;10712;52.944;9.098;2024-01-25T00:43:11;102088.88;;;15.59;65.89
21109;BME280;10712;52.944;9.098;2024-01-25T00:45:37;102088.34;;;15.37;66.15
21109;BME280;10712;52.944;9.098;2024-01-25T00:48:03;102082.38;;;15.48;66.00
21109;BME280;10712;52.944;9.098;2024-01-25T00:50:29;102091.84;;;15.55;65.98
21109;BME280;10712;52.944;9.098;2024-01-25T00:52:56;102092.84;;;15.52;66.03
21109;BME280;10712;52.944;9.098;2024-01-25T00:55:22;102100.47;;;15.44;66.32
21109;BME280;10712;52.944;9.098;2024-01-25T00:57:48;102106.53;;;15.63;65.75
21109;BME280;10712;52.944;9.098;2024-01-25T01:00:15;102125.78;;;15.71;65.62
21109;BME280;10712;52.944;9.098;2024-01-25T01:02:43;102112.69;;;15.65;65.82
21109;BME280;10712;52.944;9.098;2024-01-25T01:05:11;102112.13;;;15.60;65.85
21109;BME280;10712;52.944;9.098;2024-01-25T01:07:39;102110.00;;;15.65;65.84
21109;BME280;10712;52.944;9.098;2024-01-25T01:10:08;102112.19;;;15.59;65.76
21109;BME280;10712;52.944;9.098;2024-01-25T01:12:35;102108.97;;;15.52;65.99
21109;BME280;10712;52.944;9.098;2024-01-25T01:15:01;102118.59;;;15.56;65.85
21109;BME280;10712;52.944;9.098;2024-01-25T01:17:27;102115.59;;;15.62;65.69
21109;BME280;10712;52.944;9.098;2024-01-25T01:19:53;102122.84;;;15.60;65.72
21109;BME280;10712;52.944;9.098;2024-01-25T01:22:19;102124.66;;;15.75;65.53
21109;BME280;10712;52.944;9.098;2024-01-25T01:24:45;102123.88;;;15.58;65.92
21109;BME280;10712;52.944;9.098;2024-01-25T01:27:10;102139.94;;;15.59;65.88
21109;BME280;10712;52.944;9.098;2024-01-25T01:29:36;102134.56;;;15.59;65.84
21109;BME280;10712;52.944;9.098;2024-01-25T01:32:02;102136.63;;;15.54;66.18
21109;BME280;10712;52.944;9.098;2024-01-25T01:34:28;102138.25;;;15.57;66.08
21109;BME280;10712;52.944;9.098;2024-01-25T01:36:54;102152.09;;;15.49;66.37
21109;BME280;10712;52.944;9.098;2024-01-25T01:39:20;102141.19;;;15.52;66.23
21109;BME280;10712;52.944;9.098;2024-01-25T01:41:49;102142.66;;;15.42;66.53
21109;BME280;10712;52.944;9.098;2024-01-25T01:44:15;102129.25;;;15.58;66.25
21109;BME280;10712;52.944;9.098;2024-01-25T01:46:42;102127.75;;;15.52;66.39
21109;BME280;10712;52.944;9.098;2024-01-25T01:49:12;102133.59;;;15.60;66.15
21109;BME280;10712;52.944;9.098;2024-01-25T01:51:42;102126.91;;;15.52;66.30
21109;BME280;10712;52.944;9.098;2024-01-25T01:54:10;102127.91;;;15.49;66.56
21109;BME280;10712;52.944;9.098;2024-01-25T01:56:36;102130.81;;;15.46;66.42
21109;BME280;10712;52.944;9.098;2024-01-25T01:59:09;102142.22;;;15.50;66.43
21109;BME280;10712;52.944;9.098;2024-01-25T02:01:35;102156.50;;;15.50;66.42
21109;BME280;10712;52.944;9.098;2024-01-25T02:04:00;102153.66;;;15.37;66.76
21109;BME280;10712;52.944;9.098;2024-01-25T02:06:27;102153.94;;;15.49;66.48
21109;BME280;10712;52.944;9.098;2024-01-25T02:08:53;102157.47;;;15.49;66.49
21109;BME280;10712;52.944;9.098;2024-01-25T02:11:19;102145.88;;;15.49;66.70
21109;BME280;10712;52.944;9.098;2024-01-25T02:13:46;102155.91;;;15.29;66.88
21109;BME280;10712;52.944;9.098;2024-01-25T02:16:13;102145.19;;;15.45;66.64
21109;BME280;10712;52.944;9.098;2024-01-25T02:18:41;102156.94;;;15.43;66.42
21109;BME280;10712;52.944;9.098;2024-01-25T02:21:08;102153.75;;;15.36;66.78
21109;BME280;10712;52.944;9.098;2024-01-25T02:23:34;102152.63;;;15.40;66.69
21109;BME280;10712;52.944;9.098;2024-01-25T02:25:59;102148.91;;;15.27;67.13
21109;BME280;10712;52.944;9.098;2024-01-25T02:28:25;102156.44;;;15.36;66.90
21109;BME280;10712;52.944;9.098;2024-01-25T02:30:51;102154.84;;;15.16;67.44
21109;BME280;10712;52.944;9.098;2024-01-25T02:33:17;102160.94;;;15.35;66.85
21109;BME280;10712;52.944;9.098;2024-01-25T02:35:43;102164.22;;;15.25;67.28
21109;BME280;10712;52.944;9.098;2024-01-25T02:38:09;102156.97;;;15.27;67.10
21109;BME280;10712;52.944;9.098;2024-01-25T02:40:34;102170.13;;;15.31;67.10
21109;BME280;10712;52.944;9.098;2024-01-25T02:43:00;102169.78;;;15.37;67.14
21109;BME280;10712;52.944;9.098;2024-01-25T02:45:26;102176.34;;;15.32;67.09
21109;BME280;10712;52.944;9.098;2024-01-25T02:47:52;102166.31;;;15.20;67.32
21109;BME280;10712;52.944;9.098;2024-01-25T02:50:18;102175.84;;;15.25;67.17
21109;BME280;10712;52.944;9.098;2024-01-25T02:52:44;102179.09;;;15.15;67.37
21109;BME280;10712;52.944;9.098;2024-01-25T02:55:09;102179.88;;;15.17;67.54
21109;BME280;10712;52.944;9.098;2024-01-25T02:57:35;102187.25;;;15.29;67.10
21109;BME280;10712;52.944;9.098;2024-01-25T03:00:01;102199.72;;;15.30;67.04
21109;BME280;10712;52.944;9.098;2024-01-25T03:02:27;102206.81;;;15.15;67.48
21109;BME280;10712;52.944;9.098;2024-01-25T03:04:53;102209.59;;;15.14;67.63
21109;BME280;10712;52.944;9.098;2024-01-25T03:07:19;102209.25;;;15.20;67.61
21109;BME280;10712;52.944;9.098;2024-01-25T03:09:44;102210.13;;;15.20;67.57
21109;BME280;10712;52.944;9.098;2024-01-25T03:12:10;102214.44;;;15.23;67.50
21109;BME280;10712;52.944;9.098;2024-01-25T03:14:36;102208.44;;;15.35;67.09
21109;BME280;10712;52.944;9.098;2024-01-25T03:17:02;102212.22;;;15.31;67.27
21109;BME280;10712;52.944;9.098;2024-01-25T03:19:28;102225.97;;;15.25;67.36
21109;BME280;10712;52.944;9.098;2024-01-25T03:21:55;102229.69;;;15.22;67.53
21109;BME280;10712;52.944;9.098;2024-01-25T03:24:23;102224.09;;;15.27;67.22
21109;BME280;10712;52.944;9.098;2024-01-25T03:26:50;102228.88;;;15.05;68.11
21109;BME280;10712;52.944;9.098;2024-01-25T03:29:16;102223.63;;;15.19;67.86
21109;BME280;10712;52.944;9.098;2024-01-25T03:31:41;102220.75;;;15.06;67.99
21109;BME280;10712;52.944;9.098;2024-01-25T03:34:07;102226.84;;;14.92;68.34
21109;BME280;10712;52.944;9.098;2024-01-25T03:36:33;102229.34;;;15.13;67.80
21109;BME280;10712;52.944;9.098;2024-01-25T03:38:59;102241.63;;;15.17;67.80
21109;BME280;10712;52.944;9.098;2024-01-25T03:41:25;102237.47;;;15.11;67.74
21109;BME280;10712;52.944;9.098;2024-01-25T03:43:51;102239.13;;;14.96;68.15
21109;BME280;10712;52.944;9.098;2024-01-25T03:46:17;102230.28;;;14.94;68.14
21109;BME280;10712;52.944;9.098;2024-01-25T03:48:43;102233.94;;;14.93;68.18
21109;BME280;10712;52.944;9.098;2024-01-25T03:51:09;102239.31;;;14.93;68.17
21109;BME280;10712;52.944;9.098;2024-01-25T03:53:35;102240.53;;;15.04;67.95
21109;BME280;10712;52.944;9.098;2024-01-25T03:56:00;102235.66;;;14.94;68.28
21109;BME280;10712;52.944;9.098;2024-01-25T03:58:26;102251.00;;;14.92;68.28
21109;BME280;10712;52.944;9.098;2024-01-25T04:00:52;102259.19;;;14.89;68.18
21109;BME280;10712;52.944;9.098;2024-01-25T04:03:18;102270.38;;;14.80;68.60
21109;BME280;10712;52.944;9.098;2024-01-25T04:05:44;102268.97;;;14.73;68.78
21109;BME280;10712;52.944;9.098;2024-01-25T04:08:10;102276.72;;;14.79;68.70
21109;BME280;10712;52.944;9.098;2024-01-25T04:10:36;102277.69;;;14.78;68.69
21109;BME280;10712;52.944;9.098;2024-01-25T04:13:02;102279.97;;;14.86;68.45
21109;BME280;10712;52.944;9.098;2024-01-25T04:15:30;102277.69;;;14.78;68.72
21109;BME280;10712;52.944;9.098;2024-01-25T04:17:56;102277.50;;;14.81;68.63
21109;BME280;10712;52.944;9.098;2024-01-25T04:20:22;102267.63;;;14.82;68.64
21109;BME280;10712;52.944;9.098;2024-01-25T04:22:48;102267.09;;;14.75;68.65
21109;BME280;10712;52.944;9.098;2024-01-25T04:25:15;102272.53;;;14.74;68.94
21109;BME280;10712;52.944;9.098;2024-01-25T04:27:41;102268.97;;;14.73;68.94
21109;BME280;10712;52.944;9.098;2024-01-25T04:30:07;102270.56;;;14.77;68.61
21109;BME280;10712;52.944;9.098;2024-01-25T04:32:34;102274.50;;;14.70;68.85
21109;BME280;10712;52.944;9.098;2024-01-25T04:35:00;102261.72;;;14.75;68.82
21109;BME280;10712;52.944;9.098;2024-01-25T04:37:26;102268.13;;;14.73;68.78
21109;BME280;10712;52.944;9.098;2024-01-25T04:39:52;102260.47;;;14.65;68.96
21109;BME280;10712;52.944;9.098;2024-01-25T04:42:18;102262.03;;;14.69;68.92
21109;BME280;10712;52.944;9.098;2024-01-25T04:44:44;102271.34;;;14.62;69.21
21109;BME280;10712;52.944;9.098;2024-01-25T04:47:10;102269.91;;;14.55;69.18
21109;BME280;10712;52.944;9.098;2024-01-25T04:49:36;102277.03;;;14.56;69.35
21109;BME280;10712;52.944;9.098;2024-01-25T04:52:02;102275.53;;;14.68;69.09
21109;BME280;10712;52.944;9.098;2024-01-25T04:54:29;102276.84;;;14.59;69.38
21109;BME280;10712;52.944;9.098;2024-01-25T04:56:55;102282.06;;;14.62;69.30
21109;BME280;10712;52.944;9.098;2024-01-25T04:59:20;102287.59;;;14.59;69.41
21109;BME280;10712;52.944;9.098;2024-01-25T05:01:46;102286.94;;;14.54;69.45
21109;BME280;10712;52.944;9.098;2024-01-25T05:04:12;102280.97;;;14.49;69.77
21109;BME280;10712;52.944;9.098;2024-01-25T05:06:38;102273.84;;;14.48;69.60
21109;BME280;10712;52.944;9.098;2024-01-25T05:09:04;102271.66;;;14.56;69.36
21109;BME280;10712;52.944;9.098;2024-01-25T05:11:29;102274.75;;;14.30;69.83
21109;BME280;10712;52.944;9.098;2024-01-25T05:13:55;102282.84;;;14.47;69.76
21109;BME280;10712;52.944;9.098;2024-01-25T05:16:21;102278.03;;;14.53;69.58
21109;BME280;10712;52.944;9.098;2024-01-25T05:18:47;102279.38;;;14.45;69.72
21109;BME280;10712;52.944;9.098;2024-01-25T05:21:12;102280.31;;;14.44;69.66
21109;BME280;10712;52.944;9.098;2024-01-25T05:23:38;102288.50;;;14.41;69.77
21109;BME280;10712;52.944;9.098;2024-01-25T05:26:05;102287.44;;;14.45;69.68
21109;BME280;10712;52.944;9.098;2024-01-25T05:28:31;102282.63;;;14.33;69.99
21109;BME280;10712;52.944;9.098;2024-01-25T05:30:57;102277.97;;;14.38;69.82
21109;BME280;10712;52.944;9.098;2024-01-25T05:33:23;102290.00;;;14.46;69.70
21109;BME280;10712;52.944;9.098;2024-01-25T05:35:49;102288.06;;;14.50;69.49
21109;BME280;10712;52.944;9.098;2024-01-25T05:38:15;102288.19;;;14.47;69.42
21109;BME280;10712;52.944;9.098;2024-01-25T05:40:42;102301.69;;;14.27;70.04
21109;BME280;10712;52.944;9.098;2024-01-25T05:43:08;102293.13;;;14.37;69.80
21109;BME280;10712;52.944;9.098;2024-01-25T05:45:33;102306.69;;;14.34;69.89
21109;BME280;10712;52.944;9.098;2024-01-25T05:47:59;102296.63;;;14.39;69.75
21109;BME280;10712;52.944;9.098;2024-01-25T05:50:25;102298.31;;;14.42;69.52
21109;BME280;10712;52.944;9.098;2024-01-25T05:52:51;102304.94;;;14.33;70.00
21109;BME280;10712;52.944;9.098;2024-01-25T05:55:17;102318.28;;;14.35;69.85
21109;BME280;10712;52.944;9.098;2024-01-25T05:57:43;102318.59;;;14.29;70.09
21109;BME280;10712;52.944;9.098;2024-01-25T06:00:12;102312.72;;;14.20;70.51
21109;BME280;10712;52.944;9.098;2024-01-25T06:02:39;102321.06;;;14.14;70.95
21109;BME280;10712;52.944;9.098;2024-01-25T06:05:05;102332.13;;;14.26;70.72
21109;BME280;10712;52.944;9.098;2024-01-25T06:07:31;102347.06;;;14.31;70.46
21109;BME280;10712;52.944;9.098;2024-01-25T06:09:57;102355.72;;;14.38;70.32
21109;BME280;10712;52.944;9.098;2024-01-25T06:12:23;102355.88;;;14.33;70.26
21109;BME280;10712;52.944;9.098;2024-01-25T06:14:48;102367.34;;;14.37;70.31
21109;BME280;10712;52.944;9.098;2024-01-25T06:17:14;102366.34;;;14.39;70.08
21109;BME280;10712;52.944;9.098;2024-01-25T06:19:40;102371.97;;;14.33;70.35
21109;BME280;10712;52.944;9.098;2024-01-25T06:22:06;102372.56;;;14.40;70.33
21109;BME280;10712;52.944;9.098;2024-01-25T06:24:32;102381.34;;;14.43;70.28
21109;BME280;10712;52.944;9.098;2024-01-25T06:26:57;102392.16;;;14.42;70.53
21109;BME280;10712;52.944;9.098;2024-01-25T06:29:23;102395.78;;;14.41;70.54
21109;BME280;10712;52.944;9.098;2024-01-25T06:31:49;102392.97;;;14.44;70.69
21109;BME280;10712;52.944;9.098;2024-01-25T06:34:15;102403.69;;;14.44;70.72
21109;BME280;10712;52.944;9.098;2024-01-25T06:36:41;102412.44;;;14.47;70.57
21109;BME280;10712;52.944;9.098;2024-01-25T06:39:07;102421.28;;;14.49;70.64
21109;BME280;10712;52.944;9.098;2024-01-25T06:41:33;102416.06;;;14.46;70.82
21109;BME280;10712;52.944;9.098;2024-01-25T06:44:01;102425.78;;;14.49;70.71
21109;BME280;10712;52.944;9.098;2024-01-25T06:46:27;102439.81;;;14.54;70.58
21109;BME280;10712;52.944;9.098;2024-01-25T06:48:53;102431.66;;;14.57;70.58
21109;BME280;10712;52.944;9.098;2024-01-25T06:51:18;102436.22;;;14.55;70.63
21109;BME280;10712;52.944;9.098;2024-01-25T06:53:44;102427.16;;;14.57;70.56
21109;BME280;10712;52.944;9.098;2024-01-25T06:56:10;102427.22;;;14.56;70.58
21109;BME280;10712;52.944;9.098;2024-01-25T06:58:36;102427.22;;;14.56;70.74
21109;BME280;10712;52.944;9.098;2024-01-25T07:01:02;102428.31;;;14.52;70.68
21109;BME280;10712;52.944;9.098;2024-01-25T07:03:30;102422.81;;;14.55;70.67
21109;BME280;10712;52.944;9.098;2024-01-25T07:05:56;102416.50;;;14.56;70.74
21109;BME280;10712;52.944;9.098;2024-01-25T07:08:21;102422.22;;;14.48;70.79
21109;BME280;10712;52.944;9.098;2024-01-25T07:10:49;102423.72;;;14.54;70.77
21109;BME280;10712;52.944;9.098;2024-01-25T07:13:14;102432.72;;;14.53;70.63
21109;BME280;10712;52.944;9.098;2024-01-25T07:15:40;102441.56;;;14.55;70.68
21109;BME280;10712;52.944;9.098;2024-01-25T07:18:06;102443.75;;;14.47;70.94
21109;BME280;10712;52.944;9.098;2024-01-25T07:20:32;102449.78;;;14.52;70.71
21109;BME280;10712;52.944;9.098;2024-01-25T07:22:58;102451.59;;;14.51;70.89
21109;BME280;10712;52.944;9.098;2024-01-25T07:25:23;102461.44;;;14.51;70.78
21109;BME280;10712;52.944;9.098;2024-01-25T07:27:50;102459.53;;;14.53;70.66
21109;BME280;10712;52.944;9.098;2024-01-25T07:30:16;102463.31;;;14.49;70.83
21109;BME280;10712;52.944;9.098;2024-01-25T07:32:42;102463.03;;;14.55;70.74
21109;BME280;10712;52.944;9.098;2024-01-25T07:35:11;102455.91;;;14.54;70.72
21109;BME280;10712;52.944;9.098;2024-01-25T07:37:39;102470.28;;;14.53;70.79
21109;BME280;10712;52.944;9.098;2024-01-25T07:40:07;102472.19;;;14.51;70.81
21109;BME280;10712;52.944;9.098;2024-01-25T07:42:33;102474.06;;;14.49;70.90
21109;BME280;10712;52.944;9.098;2024-01-25T07:44:59;102476.59;;;14.52;70.93
21109;BME280;10712;52.944;9.098;2024-01-25T07:47:24;102473.19;;;14.48;70.93
21109;BME280;10712;52.944;9.098;2024-01-25T07:49:51;102469.13;;;14.40;71.53
21109;BME280;10712;52.944;9.098;2024-01-25T07:52:17;102467.25;;;14.42;71.29
21109;BME280;10712;52.944;9.098;2024-01-25T07:54:43;102466.00;;;14.49;71.14
21109;BME280;10712;52.944;9.098;2024-01-25T07:57:10;102467.81;;;14.48;71.03
21109;BME280;10712;52.944;9.098;2024-01-25T07:59:35;102475.63;;;14.53;70.95
21109;BME280;10712;52.944;9.098;2024-01-25T08:02:01;102476.50;;;14.53;71.04
21109;BME280;10712;52.944;9.098;2024-01-25T08:04:27;102478.47;;;14.50;71.14
21109;BME280;10712;52.944;9.098;2024-01-25T08:06:53;102481.22;;;14.48;71.09
21109;BME280;10712;52.944;9.098;2024-01-25T08:09:19;102480.22;;;14.51;71.17
21109;BME280;10712;52.944;9.098;2024-01-25T08:11:45;102474.06;;;14.49;71.20
21109;BME280;10712;52.944;9.098;2024-01-25T08:14:11;102481.97;;;14.52;71.14
21109;BME280;10712;52.944;9.098;2024-01-25T08:16:37;102481.75;;;14.56;71.06
21109;BME280;10712;52.944;9.098;2024-01-25T08:19:03;102482.31;;;14.63;71.03
21109;BME280;10712;52.944;9.098;2024-01-25T08:21:30;102480.72;;;14.59;70.95
21109;BME280;10712;52.944;9.098;2024-01-25T08:23:56;102472.88;;;14.54;71.02
21109;BME280;10712;52.944;9.098;2024-01-25T08:26:22;102479.13;;;14.55;71.07
21109;BME280;10712;52.944;9.098;2024-01-25T08:28:48;102481.44;;;14.44;71.39
21109;BME280;10712;52.944;9.098;2024-01-25T08:31:13;102480.41;;;14.46;71.48
21109;BME280;10712;52.944;9.098;2024-01-25T08:33:40;102494.06;;;14.42;71.58
21109;BME280;10712;52.944;9.098;2024-01-25T08:36:10;102494.56;;;14.50;71.27
21109;BME280;10712;52.944;9.098;2024-01-25T08:38:36;102509.28;;;14.60;70.99
21109;BME280;10712;52.944;9.098;2024-01-25T08:41:02;102517.41;;;14.58;71.16
21109;BME280;10712;52.944;9.098;2024-01-25T08:43:28;102512.59;;;14.46;71.31
21109;BME280;10712;52.944;9.098;2024-01-25T08:45:54;102509.84;;;14.48;71.55
21109;BME280;10712;52.944;9.098;2024-01-25T08:48:20;102501.09;;;14.63;71.07
21109;BME280;10712;52.944;9.098;2024-01-25T08:50:46;102509.28;;;14.60;71.13
21109;BME280;10712;52.944;9.098;2024-01-25T08:53:12;102504.78;;;14.61;71.12
21109;BME280;10712;52.944;9.098;2024-01-25T08:55:38;102499.28;;;14.64;71.04
21109;BME280;10712;52.944;9.098;2024-01-25T08:58:04;102498.53;;;14.60;70.98
21109;BME280;10712;52.944;9.098;2024-01-25T09:00:30;102501.09;;;14.63;71.02
21109;BME280;10712;52.944;9.098;2024-01-25T09:02:55;102503.78;;;14.63;71.12
21109;BME280;10712;52.944;9.098;2024-01-25T09:05:21;102506.22;;;14.68;70.99
21109;BME280;10712;52.944;9.098;2024-01-25T09:07:47;102514.50;;;14.63;71.00
21109;BME280;10712;52.944;9.098;2024-01-25T09:10:13;102523.06;;;14.71;70.97
21109;BME280;10712;52.944;9.098;2024-01-25T09:12:40;102530.19;;;14.72;71.01
21109;BME280;10712;52.944;9.098;2024-01-25T09:15:07;102538.31;;;14.71;70.89
21109;BME280;10712;52.944;9.098;2024-01-25T09:17:34;102548.09;;;14.72;70.92
21109;BME280;10712;52.944;9.098;2024-01-25T09:20:00;102538.88;;;14.77;70.86
21109;BME280;10712;52.944;9.098;2024-01-25T09:22:26;102550.41;;;14.79;70.73
21109;BME280;10712;52.944;9.098;2024-01-25T09:24:53;102548.81;;;14.75;70.81
21109;BME280;10712;52.944;9.098;2024-01-25T09:27:18;102542.50;;;14.76;70.74
21109;BME280;10712;52.944;9.098;2024-01-25T09:29:44;102544.25;;;14.77;70.72
21109;BME280;10712;52.944;9.098;2024-01-25T09:32:10;102556.03;;;14.73;71.02
21109;BME280;10712;52.944;9.098;2024-01-25T09:34:37;102561.94;;;14.81;70.86
21109;BME280;10712;52.944;9.098;2024-01-25T09:37:04;102558.47;;;14.79;70.70
21109;BME280;10712;52.944;9.098;2024-01-25T09:39:31;102565.06;;;14.72;70.64
21109;BME280;10712;52.944;9.098;2024-01-25T09:41:58;102566.88;;;14.72;70.56
21109;BME280;10712;52.944;9.098;2024-01-25T09:44:24;102571.22;;;14.74;70.70
21109;BME280;10712;52.944;9.098;2024-01-25T09:46:51;102567.16;;;14.84;70.63
21109;BME280;10712;52.944;9.098;2024-01-25T09:49:17;102571.06;;;14.77;70.52
21109;BME280;10712;52.944;9.098;2024-01-25T09:51:44;102564.19;;;14.90;70.38
21109;BME280;10712;52.944;9.098;2024-01-25T09:54:11;102565.13;;;14.89;70.42
21109;BME280;10712;52.944;9.098;2024-01-25T09:56:40;102567.50;;;14.95;70.35
21109;BME280;10712;52.944;9.098;2024-01-25T09:59:08;102573.47;;;15.02;70.17
21109;BME280;10712;52.944;9.098;2024-01-25T10:01:35;102570.06;;;14.98;70.35
21109;BME280;10712;52.944;9.098;2024-01-25T10:04:00;102572.53;;;15.03;70.30
21109;BME280;10712;52.944;9.098;2024-01-25T10:06:27;102576.59;;;14.93;70.51
21109;BME280;10712;52.944;9.098;2024-01-25T10:08:53;102582.84;;;14.93;70.37
21109;BME280;10712;52.944;9.098;2024-01-25T10:11:19;102582.69;;;14.96;70.36
21109;BME280;10712;52.944;9.098;2024-01-25T10:13:47;102580.94;;;14.95;70.43
21109;BME280;10712;52.944;9.098;2024-01-25T10:16:15;102593.72;;;14.90;70.39
21109;BME280;10712;52.944;9.098;2024-01-25T10:18:42;102588.22;;;14.93;70.50
21109;BME280;10712;52.944;9.098;2024-01-25T10:21:12;102595.47;;;14.91;70.40
21109;BME280;10712;52.944;9.098;2024-01-25T10:23:39;102592.19;;;14.85;70.33
21109;BME280;10712;52.944;9.098;2024-01-25T10:26:05;102584.84;;;14.88;70.39
21109;BME280;10712;52.944;9.098;2024-01-25T10:28:31;102582.31;;;14.85;70.42
21109;BME280;10712;52.944;9.098;2024-01-25T10:31:01;102596.16;;;14.76;70.46
21109;BME280;10712;52.944;9.098;2024-01-25T10:33:28;102594.94;;;14.83;70.39
21109;BME280;10712;52.944;9.098;2024-01-25T10:35:54;102600.25;;;14.85;70.44
21109;BME280;10712;52.944;9.098;2024-01-25T10:38:26;102597.19;;;14.92;70.37
21109;BME280;10712;52.944;9.098;2024-01-25T10:40:53;102602.56;;;14.92;70.36
21109;BME280;10712;52.944;9.098;2024-01-25T10:43:19;102590.66;;;14.98;70.40
21109;BME280;10712;52.944;9.098;2024-01-25T10:45:46;102597.56;;;15.04;70.41
21109;BME280;10712;52.944;9.098;2024-01-25T10:48:12;102591.09;;;15.08;70.54
21109;BME280;10712;52.944;9.098;2024-01-25T10:50:38;102597.13;;;15.13;70.64
21109;BME280;10712;52.944;9.098;2024-01-25T10:53:07;102604.59;;;15.25;70.55
21109;BME280;10712;52.944;9.098;2024-01-25T10:55:34;102593.34;;;15.17;70.29
21109;BME280;10712;52.944;9.098;2024-01-25T10:58:00;102591.22;;;15.23;70.07
21109;BME280;10712;52.944;9.098;2024-01-25T11:00:26;102604.72;;;15.22;69.87
21109;BME280;10712;52.944;9.098;2024-01-25T11:02:52;102595.88;;;15.20;69.85
21109;BME280;10712;52.944;9.098;2024-01-25T11:05:18;102588.19;;;15.12;69.84
21109;BME280;10712;52.944;9.098;2024-01-25T11:07:49;102593.28;;;15.18;69.66
21109;BME280;10712;52.944;9.098;2024-01-25T11:10:21;102586.69;;;15.07;69.78
21109;BME280;10712;52.944;9.098;2024-01-25T11:12:56;102592.81;;;15.09;69.62
21109;BME280;10712;52.944;9.098;2024-01-25T11:15:36;102589.56;;;15.02;69.69
21109;BME280;10712;52.944;9.098;2024-01-25T11:18:03;102594.06;;;15.02;69.67
21109;BME280;10712;52.944;9.098;2024-01-25T11:20:33;102592.81;;;15.09;69.69
21109;BME280;10712;52.944;9.098;2024-01-25T11:23:05;102589.38;;;15.07;69.68
21109;BME280;10712;52.944;9.098;2024-01-25T11:25:35;102582.09;;;15.09;69.88
21109;BME280;10712;52.944;9.098;2024-01-25T11:28:02;102581.78;;;15.15;69.77
21109;BME280;10712;52.944;9.098;2024-01-25T11:30:31;102573.31;;;15.24;69.78
21109;BME280;10712;52.944;9.098;2024-01-25T11:32:58;102579.31;;;15.29;69.73
21109;BME280;10712;52.944;9.098;2024-01-25T11:35:24;102566.69;;;15.31;69.76
21109;BME280;10712;52.944;9.098;2024-01-25T11:37:50;102580.19;;;15.29;69.87
21109;BME280;10712;52.944;9.098;2024-01-25T11:40:19;102580.63;;;15.39;69.47
21109;BME280;10712;52.944;9.098;2024-01-25T11:42:50;102582.50;;;15.37;69.01
21109;BME280;10712;52.944;9.098;2024-01-25T11:45:17;102581.63;;;15.36;68.93
21109;BME280;10712;52.944;9.098;2024-01-25T11:47:44;102575.56;;;15.33;68.87
21109;BME280;10712;52.944;9.098;2024-01-25T11:50:12;102577.28;;;15.34;68.99
21109;BME280;10712;52.944;9.098;2024-01-25T11:52:38;102575.06;;;15.42;69.13
21109;BME280;10712;52.944;9.098;2024-01-25T11:55:08;102571.31;;;15.46;69.00
21109;BME280;10712;52.944;9.098;2024-01-25T11:57:38;102562.13;;;15.50;68.90
21109;BME280;10712;52.944;9.098;2024-01-25T12:00:08;102566.88;;;15.45;68.78
21109;BME280;10712;52.944;9.098;2024-01-25T12:02:37;102569.25;;;15.51;68.58
21109;BME280;10712;52.944;9.098;2024-01-25T12:05:03;102572.38;;;15.42;68.69
21109;BME280;10712;52.944;9.098;2024-01-25T12:07:31;102567.13;;;15.41;68.66
21109;BME280;10712;52.944;9.098;2024-01-25T12:10:04;102570.00;;;15.36;68.42
21109;BME280;10712;52.944;9.098;2024-01-25T12:12:30;102564.50;;;15.39;68.55
21109;BME280;10712;52.944;9.098;2024-01-25T12:15:00;102560.88;;;15.40;68.50
21109;BME280;10712;52.944;9.098;2024-01-25T12:17:30;102556.19;;;15.44;68.58
21109;BME280;10712;52.944;9.098;2024-01-25T12:19:57;102553.31;;;15.48;68.55
21109;BME280;10712;52.944;9.098;2024-01-25T12:22:26;102555.03;;;15.49;68.47
21109;BME280;10712;52.944;9.098;2024-01-25T12:24:57;102552.19;;;15.52;68.53
21109;BME280;10712;52.944;9.098;2024-01-25T12:27:25;102554.06;;;15.50;68.48
21109;BME280;10712;52.944;9.098;2024-01-25T12:29:52;102564.06;;;15.48;68.62
21109;BME280;10712;52.944;9.098;2024-01-25T12:32:22;102561.81;;;15.39;68.26
21109;BME280;10712;52.944;9.098;2024-01-25T12:34:59;102568.56;;;15.48;68.20
21109;BME280;10712;52.944;9.098;2024-01-25T12:37:27;102556.69;;;15.52;68.17
21109;BME280;10712;52.944;9.098;2024-01-25T12:39:54;102563.78;;;15.54;68.17
21109;BME280;10712;52.944;9.098;2024-01-25T12:42:21;102564.91;;;15.67;68.15
21109;BME280;10712;52.944;9.098;2024-01-25T12:44:47;102566.63;;;15.68;68.14
21109;BME280;10712;52.944;9.098;2024-01-25T12:47:13;102555.19;;;15.82;68.13